createdAt,value
2018-04-09T00:00:02.183Z,99937.16
2018-04-09T00:02:29.590Z,99935.69
2018-04-09T00:04:56.987Z,99945.14
2018-04-09T00:07:24.403Z,99937.22
2018-04-09T00:09:51.798Z,99936.50
2018-04-09T00:12:19.198Z,99938.81
2018-04-09T00:14:46.595Z,99937.22
2018-04-09T00:17:13.978Z,99944.23
2018-04-09T00:19:41.378Z,99941.05
2018-04-09T00:22:08.762Z,99936.63
2018-04-09T00:24:36.160Z,99939.53
2018-04-09T00:27:03.557Z,99933.06
2018-04-09T00:29:30.955Z,99930.38
2018-04-09T00:31:58.419Z,99923.58
2018-04-09T00:34:25.810Z,99924.00
2018-04-09T00:36:53.206Z,99921.48
2018-04-09T00:39:20.619Z,99917.53
2018-04-09T00:41:48.006Z,99911.42
2018-04-09T00:44:15.494Z,99911.92
2018-04-09T00:46:42.902Z,99911.84
2018-04-09T00:49:10.303Z,99908.02
2018-04-09T00:51:37.692Z,99909.89
2018-04-09T00:54:05.151Z,99909.14
2018-04-09T00:56:32.539Z,99908.92
2018-04-09T00:59:00.004Z,99909.39
2018-04-09T01:01:27.406Z,99903.81
2018-04-09T01:03:54.797Z,99902.91
2018-04-09T01:06:22.203Z,99899.03
2018-04-09T01:08:49.592Z,99896.09
2018-04-09T01:11:17.070Z,99895.59
2018-04-09T01:13:44.526Z,99897.88
2018-04-09T01:16:11.935Z,99897.88
2018-04-09T01:18:39.342Z,99896.75
2018-04-09T01:21:06.736Z,99898.58
2018-04-09T01:23:34.123Z,99896.59
2018-04-09T01:26:01.522Z,99892.52
2018-04-09T01:28:28.914Z,99887.17
2018-04-09T01:30:56.426Z,99890.47
2018-04-09T01:33:23.830Z,99893.19
2018-04-09T01:35:51.232Z,99886.06
2018-04-09T01:38:18.690Z,99883.48
2018-04-09T01:40:46.091Z,99884.58
2018-04-09T01:43:13.480Z,99886.13
2018-04-09T01:45:40.878Z,99883.07
2018-04-09T01:48:08.366Z,99885.50
2018-04-09T01:50:35.759Z,99882.89
2018-04-09T01:53:03.199Z,99887.02
2018-04-09T01:55:30.612Z,99880.45
2018-04-09T01:57:58.007Z,99876.62
2018-04-09T02:00:25.410Z,99875.67
2018-04-09T02:02:52.798Z,99871.53
2018-04-09T02:05:20.194Z,99869.38
2018-04-09T02:07:47.685Z,99862.89
2018-04-09T02:10:15.094Z,99866.70
2018-04-09T02:12:42.496Z,99864.64
2018-04-09T02:15:09.909Z,99857.77
2018-04-09T02:17:37.282Z,99857.45
2018-04-09T02:20:04.755Z,99849.35
2018-04-09T02:22:32.211Z,99850.89
2018-04-09T02:24:59.610Z,99846.47
2018-04-09T02:27:26.994Z,99851.45
2018-04-09T02:29:54.395Z,99846.89
2018-04-09T02:32:21.843Z,99845.45
2018-04-09T02:34:49.246Z,99853.95
2018-04-09T02:37:16.638Z,99853.91
2018-04-09T02:39:44.032Z,99852.11
2018-04-09T02:42:11.422Z,99849.72
2018-04-09T02:44:38.923Z,99851.34
2018-04-09T02:47:06.315Z,99859.88
2018-04-09T02:49:33.745Z,99857.30
2018-04-09T02:52:01.198Z,99845.78
2018-04-09T02:54:28.659Z,99843.95
2018-04-09T02:56:56.065Z,99843.11
2018-04-09T02:59:23.452Z,99838.10
2018-04-09T03:01:50.883Z,99844.36
2018-04-09T03:04:18.271Z,99844.95
2018-04-09T03:06:45.676Z,99842.28
2018-04-09T03:09:13.067Z,99847.72
2018-04-09T03:11:40.546Z,99845.27
2018-04-09T03:14:07.934Z,99849.92
2018-04-09T03:16:35.332Z,99854.44
2018-04-09T03:19:02.718Z,99847.13
2018-04-09T03:21:30.115Z,99848.72
2018-04-09T03:23:57.511Z,99852.34
2018-04-09T03:26:24.912Z,99852.21
2018-04-09T03:28:52.304Z,99860.38
2018-04-09T03:31:19.704Z,99857.92
2018-04-09T03:33:47.083Z,99857.13
2018-04-09T03:36:14.559Z,99857.88
2018-04-09T03:38:41.947Z,99857.92
2018-04-09T03:41:09.343Z,99855.13
2018-04-09T03:43:36.736Z,99856.14
2018-04-09T03:46:04.129Z,99861.75
2018-04-09T03:48:31.518Z,99865.45
2018-04-09T03:50:58.962Z,99860.94
2018-04-09T03:53:26.364Z,99859.59
2018-04-09T03:55:53.805Z,99862.69
2018-04-09T03:58:21.245Z,99859.16
2018-04-09T04:00:48.618Z,99853.97
2018-04-09T04:03:16.077Z,99853.59
2018-04-09T04:05:43.474Z,99854.55
2018-04-09T04:08:10.879Z,99849.42
2018-04-09T04:10:38.275Z,99852.94
2018-04-09T04:13:05.728Z,99849.55
2018-04-09T04:15:45.126Z,99844.41
2018-04-09T04:18:24.266Z,99850.98
2018-04-09T04:21:03.402Z,99855.91
2018-04-09T04:23:30.830Z,99860.91
2018-04-09T04:25:58.207Z,99857.31
2018-04-09T04:28:25.617Z,99853.98
2018-04-09T04:30:53.011Z,99857.36
2018-04-09T04:33:20.403Z,99850.92
2018-04-09T04:35:47.806Z,99849.44
2018-04-09T04:38:15.194Z,99853.95
2018-04-09T04:40:42.691Z,99858.83
2018-04-09T04:43:10.083Z,99858.97
2018-04-09T04:45:37.482Z,99863.90
2018-04-09T04:48:04.948Z,99865.86
2018-04-09T04:50:32.346Z,99865.37
2018-04-09T04:52:59.746Z,99862.10
2018-04-09T04:55:27.146Z,99870.40
2018-04-09T04:57:54.581Z,99864.13
2018-04-09T05:00:21.963Z,99865.33
2018-04-09T05:02:49.357Z,99870.95
2018-04-09T05:05:16.751Z,99870.63
2018-04-09T05:07:44.149Z,99876.06
2018-04-09T05:10:11.534Z,99869.34
2018-04-09T05:12:38.958Z,99873.81
2018-04-09T05:15:06.431Z,99877.50
2018-04-09T05:17:33.835Z,99871.66
2018-04-09T05:20:01.222Z,99873.83
2018-04-09T05:22:28.626Z,99878.97
2018-04-09T05:24:56.043Z,99878.09
2018-04-09T05:27:23.447Z,99872.37
2018-04-09T05:29:50.834Z,99868.95
2018-04-09T05:32:18.237Z,99869.52
2018-04-09T05:34:45.677Z,99871.73
2018-04-09T05:37:13.130Z,99869.92
2018-04-09T05:39:40.527Z,99868.12
2018-04-09T05:42:07.938Z,99869.41
2018-04-09T05:44:35.335Z,99872.70
2018-04-09T05:47:02.763Z,99880.92
2018-04-09T05:49:30.139Z,99879.71
2018-04-09T05:51:57.562Z,99881.08
2018-04-09T05:54:25.010Z,99883.33
2018-04-09T05:56:52.414Z,99880.20
2018-04-09T05:59:19.903Z,99878.56
2018-04-09T06:01:47.196Z,99878.33
2018-04-09T06:04:14.585Z,99874.24
2018-04-09T06:06:42.294Z,99873.09
2018-04-09T06:09:09.683Z,99875.76
2018-04-09T06:11:37.107Z,99876.65
2018-04-09T06:14:04.498Z,99884.74
2018-04-09T06:16:31.923Z,99883.12
2018-04-09T06:18:59.378Z,99884.28
2018-04-09T06:21:26.831Z,99886.44
2018-04-09T06:23:54.290Z,99888.05
2018-04-09T06:26:21.690Z,99894.73
2018-04-09T06:28:49.087Z,99893.30
2018-04-09T06:31:16.554Z,99887.27
2018-04-09T06:33:43.952Z,99893.56
2018-04-09T06:36:11.344Z,99897.20
2018-04-09T06:38:38.738Z,99897.09
2018-04-09T06:41:06.134Z,99895.14
2018-04-09T06:43:33.526Z,99890.56
2018-04-09T06:46:00.967Z,99888.91
2018-04-09T06:48:28.330Z,99886.94
2018-04-09T06:50:55.719Z,99896.12
2018-04-09T06:53:23.119Z,99894.52
2018-04-09T06:55:50.510Z,99893.25
2018-04-09T06:58:17.910Z,99896.28
2018-04-09T07:00:45.302Z,99888.28
2018-04-09T07:03:12.782Z,99887.03
2018-04-09T07:05:40.171Z,99883.14
2018-04-09T07:08:07.589Z,99885.78
2018-04-09T07:10:35.045Z,99878.27
2018-04-09T07:13:02.506Z,99878.67
2018-04-09T07:15:29.958Z,99878.36
2018-04-09T07:17:57.419Z,99878.88
2018-04-09T07:20:24.871Z,99887.86
2018-04-09T07:22:52.270Z,99892.02
2018-04-09T07:25:19.667Z,99899.08
2018-04-09T07:27:47.059Z,99906.02
2018-04-09T07:30:14.450Z,99915.69
2018-04-09T07:32:41.842Z,99911.21
2018-04-09T07:35:09.230Z,99907.23
2018-04-09T07:37:36.631Z,99906.44
2018-04-09T07:40:04.023Z,99909.95
2018-04-09T07:42:31.426Z,99908.11
2018-04-09T07:44:58.826Z,99905.00
2018-04-09T07:47:26.230Z,99901.25
2018-04-09T07:49:53.618Z,99901.54
2018-04-09T07:52:21.019Z,99895.27
2018-04-09T07:54:48.413Z,99889.25
2018-04-09T07:57:15.910Z,99894.16
2018-04-09T07:59:43.299Z,99887.98
2018-04-09T08:02:10.695Z,99883.92
2018-04-09T08:04:38.085Z,99893.95
2018-04-09T08:07:05.474Z,99892.81
2018-04-09T08:09:32.892Z,99893.06
2018-04-09T08:12:00.290Z,99892.58
2018-04-09T08:14:27.680Z,99896.60
2018-04-09T08:16:55.075Z,99897.88
2018-04-09T08:19:22.499Z,99902.92
2018-04-09T08:21:49.889Z,99903.13
2018-04-09T08:24:17.334Z,99906.67
2018-04-09T08:26:44.715Z,99899.77
2018-04-09T08:29:12.119Z,99907.47
2018-04-09T08:31:39.510Z,99911.56
2018-04-09T08:34:06.912Z,99911.04
2018-04-09T08:36:34.312Z,99908.95
2018-04-09T08:39:01.709Z,99906.02
2018-04-09T08:41:29.095Z,99916.48
2018-04-09T08:43:56.577Z,99913.59
2018-04-09T08:46:23.971Z,99914.45
2018-04-09T08:48:51.389Z,99913.04
2018-04-09T08:51:18.839Z,99915.03
2018-04-09T08:53:46.239Z,99908.50
2018-04-09T08:56:13.638Z,99910.08
2018-04-09T08:58:41.039Z,99907.41
2018-04-09T09:01:08.447Z,99903.86
2018-04-09T09:03:35.923Z,99901.03
2018-04-09T09:06:03.319Z,99900.34
2018-04-09T09:08:30.740Z,99897.30
2018-04-09T09:10:58.124Z,99890.11
2018-04-09T09:13:25.546Z,99891.34
2018-04-09T09:15:52.934Z,99882.06
2018-04-09T09:18:20.331Z,99883.55
2018-04-09T09:20:47.728Z,99883.47
2018-04-09T09:23:15.128Z,99881.53
2018-04-09T09:25:42.519Z,99881.42
2018-04-09T09:28:09.911Z,99876.58
2018-04-09T09:30:37.307Z,99877.99
2018-04-09T09:33:04.703Z,99880.56
2018-04-09T09:35:32.090Z,99875.42
2018-04-09T09:37:59.478Z,99881.30
2018-04-09T09:40:26.866Z,99882.05
2018-04-09T09:42:54.266Z,99883.89
2018-04-09T09:45:21.674Z,99882.33
2018-04-09T09:47:49.075Z,99884.41
2018-04-09T09:50:16.465Z,99891.09
2018-04-09T09:52:43.914Z,99888.19
2018-04-09T09:55:11.302Z,99886.17
2018-04-09T09:57:38.703Z,99878.36
2018-04-09T10:00:06.111Z,99876.59
2018-04-09T10:02:33.502Z,99876.20
2018-04-09T10:05:11.498Z,99880.02
2018-04-09T10:07:38.959Z,99883.19
2018-04-09T10:10:06.323Z,99876.71
2018-04-09T10:12:33.746Z,99869.96
2018-04-09T10:15:01.139Z,99869.28
2018-04-09T10:17:28.538Z,99874.50
2018-04-09T10:19:55.934Z,99864.03
2018-04-09T10:22:23.333Z,99868.69
2018-04-09T10:24:50.723Z,99864.20
2018-04-09T10:27:18.179Z,99859.56
2018-04-09T10:29:45.640Z,99856.23
2018-04-09T10:32:13.030Z,99859.27
2018-04-09T10:34:40.426Z,99852.95
2018-04-09T10:37:07.858Z,99858.05
2018-04-09T10:39:35.367Z,99855.39
2018-04-09T10:42:02.759Z,99857.09
2018-04-09T10:44:30.155Z,99856.56
2018-04-09T10:46:57.549Z,99858.28
2018-04-09T10:49:24.951Z,99858.34
2018-04-09T10:51:52.451Z,99858.38
2018-04-09T10:54:19.854Z,99851.45
2018-04-09T10:56:47.243Z,99858.78
2018-04-09T10:59:14.641Z,99856.89
2018-04-09T11:01:42.086Z,99863.28
2018-04-09T11:04:09.545Z,99859.77
2018-04-09T11:06:36.873Z,99850.82
2018-04-09T11:09:04.267Z,99844.98
2018-04-09T11:11:31.663Z,99846.13
2018-04-09T11:13:59.068Z,99842.36
2018-04-09T11:16:26.450Z,99840.13
2018-04-09T11:18:53.867Z,99834.30
2018-04-09T11:21:21.263Z,99830.47
2018-04-09T11:23:48.679Z,99829.02
2018-04-09T11:26:16.139Z,99823.75
2018-04-09T11:28:43.538Z,99823.50
2018-04-09T11:31:10.950Z,99821.00
2018-04-09T11:33:38.407Z,99819.32
2018-04-09T11:36:05.802Z,99816.22
2018-04-09T11:38:33.197Z,99820.09
2018-04-09T11:41:00.700Z,99816.57
2018-04-09T11:43:28.138Z,99813.23
2018-04-09T11:45:55.525Z,99811.93
2018-04-09T11:48:23.221Z,99807.22
2018-04-09T11:50:50.727Z,99796.84
2018-04-09T11:53:18.113Z,99799.53
2018-04-09T11:55:45.544Z,99792.74
2018-04-09T11:58:12.967Z,99787.62
2018-04-09T12:00:40.364Z,99787.29
2018-04-09T12:03:07.752Z,99781.86
2018-04-09T12:05:35.148Z,99793.63
2018-04-09T12:08:02.544Z,99781.64
2018-04-09T12:10:30.465Z,99778.20
2018-04-09T12:12:57.861Z,99777.65
2018-04-09T12:15:25.298Z,99769.06
2018-04-09T12:17:52.681Z,99773.88
2018-04-09T12:20:20.099Z,99765.91
2018-04-09T12:22:47.490Z,99765.34
2018-04-09T12:25:14.892Z,99769.39
2018-04-09T12:27:42.286Z,99775.27
2018-04-09T12:30:09.685Z,99772.08
2018-04-09T12:32:37.080Z,99769.22
2018-04-09T12:35:04.518Z,99772.37
2018-04-09T12:37:31.919Z,99768.58
2018-04-09T12:39:59.308Z,99766.28
2018-04-09T12:42:26.714Z,99760.50
2018-04-09T12:44:54.124Z,99751.83
2018-04-09T12:47:21.543Z,99754.86
2018-04-09T12:49:48.989Z,99754.69
2018-04-09T12:52:16.373Z,99748.95
2018-04-09T12:54:43.790Z,99745.42
2018-04-09T12:57:11.181Z,99751.46
2018-04-09T12:59:38.655Z,99750.03
2018-04-09T13:02:06.081Z,99747.16
2018-04-09T13:04:33.480Z,99749.19
2018-04-09T13:07:00.892Z,99743.16
2018-04-09T13:09:28.348Z,99737.92
2018-04-09T13:11:55.813Z,99737.66
2018-04-09T13:14:23.252Z,99737.66
2018-04-09T13:16:50.646Z,99740.38
2018-04-09T13:19:18.046Z,99737.14
2018-04-09T13:21:45.437Z,99733.94
2018-04-09T13:24:12.834Z,99731.06
2018-04-09T13:26:40.229Z,99729.45
2018-04-09T13:29:07.705Z,99727.33
2018-04-09T13:31:35.164Z,99721.66
2018-04-09T13:34:02.568Z,99718.33
2018-04-09T13:36:29.956Z,99717.59
2018-04-09T13:38:57.811Z,99711.11
2018-04-09T13:41:25.196Z,99716.95
2018-04-09T13:43:52.648Z,99709.51
2018-04-09T13:46:20.100Z,99712.86
2018-04-09T13:48:47.519Z,99710.23
2018-04-09T13:51:14.932Z,99711.50
2018-04-09T13:53:42.398Z,99705.83
2018-04-09T13:56:09.854Z,99709.95
2018-04-09T13:58:37.248Z,99709.70
2018-04-09T14:01:04.641Z,99706.80
2018-04-09T14:03:32.036Z,99706.89
2018-04-09T14:05:59.427Z,99706.16
2018-04-09T14:08:26.836Z,99707.42
2018-04-09T14:10:54.240Z,99709.09
2018-04-09T14:13:21.624Z,99709.53
2018-04-09T14:15:49.104Z,99708.02
2018-04-09T14:18:16.510Z,99704.22
2018-04-09T14:20:43.912Z,99702.48
2018-04-09T14:23:11.372Z,99705.23
2018-04-09T14:25:38.775Z,99698.53
2018-04-09T14:28:06.176Z,99691.35
2018-04-09T14:30:33.576Z,99703.28
2018-04-09T14:33:01.056Z,99701.03
2018-04-09T14:35:28.444Z,99700.87
2018-04-09T14:37:55.837Z,99699.81
2018-04-09T14:40:23.324Z,99702.95
2018-04-09T14:42:50.714Z,99700.61
2018-04-09T14:45:18.125Z,99688.84
2018-04-09T14:47:45.517Z,99700.81
2018-04-09T14:50:12.900Z,99699.80
2018-04-09T14:52:40.288Z,99695.30
2018-04-09T14:55:07.676Z,99693.57
2018-04-09T14:57:35.060Z,99688.89
2018-04-09T15:00:02.457Z,99689.37
2018-04-09T15:02:29.853Z,99685.03
2018-04-09T15:04:57.248Z,99693.91
2018-04-09T15:07:24.646Z,99678.12
2018-04-09T15:09:52.032Z,99684.97
2018-04-09T15:12:19.460Z,99685.37
2018-04-09T15:14:46.844Z,99682.56
2018-04-09T15:17:14.229Z,99679.41
2018-04-09T15:19:41.722Z,99682.35
2018-04-09T15:22:09.108Z,99679.70
2018-04-09T15:24:36.544Z,99685.87
2018-04-09T15:27:04.001Z,99685.41
2018-04-09T15:29:31.381Z,99687.06
2018-04-09T15:31:58.784Z,99687.06
2018-04-09T15:34:26.279Z,99681.36
2018-04-09T15:36:53.656Z,99682.30
2018-04-09T15:39:21.064Z,99683.02
2018-04-09T15:41:48.440Z,99683.66
2018-04-09T15:44:15.841Z,99685.33
2018-04-09T15:46:43.241Z,99686.22
2018-04-09T15:49:10.653Z,99683.65
2018-04-09T15:51:38.045Z,99688.02
2018-04-09T15:54:05.511Z,99684.56
2018-04-09T15:56:32.968Z,99685.39
2018-04-09T15:59:00.429Z,99684.84
2018-04-09T16:01:27.905Z,99683.30
2018-04-09T16:03:55.296Z,99682.41
2018-04-09T16:06:22.701Z,99681.95
2018-04-09T16:08:50.101Z,99674.91
2018-04-09T16:11:17.512Z,99669.92
2018-04-09T16:13:44.970Z,99674.19
2018-04-09T16:16:12.429Z,99675.28
2018-04-09T16:18:39.812Z,99675.73
2018-04-09T16:21:07.206Z,99675.86
2018-04-09T16:23:34.594Z,99677.05
2018-04-09T16:26:01.987Z,99675.78
2018-04-09T16:28:29.377Z,99669.20
2018-04-09T16:30:56.772Z,99676.72
2018-04-09T16:33:24.161Z,99673.91
2018-04-09T16:35:51.558Z,99674.06
2018-04-09T16:38:18.944Z,99676.97
2018-04-09T16:40:46.343Z,99679.15
2018-04-09T16:43:13.736Z,99679.72
2018-04-09T16:45:41.133Z,99686.30
2018-04-09T16:48:08.516Z,99689.64
2018-04-09T16:50:35.906Z,99691.16
2018-04-09T16:53:03.303Z,99691.00
2018-04-09T16:55:30.708Z,99694.49
2018-04-09T16:57:58.101Z,99686.02
2018-04-09T17:00:25.517Z,99679.75
2018-04-09T17:02:52.902Z,99679.70
2018-04-09T17:05:20.300Z,99686.09
2018-04-09T17:07:47.784Z,99683.28
2018-04-09T17:10:15.178Z,99691.29
2018-04-09T17:12:42.568Z,99680.69
2018-04-09T17:15:09.967Z,99679.05
2018-04-09T17:17:37.349Z,99674.71
2018-04-09T17:20:04.748Z,99681.17
2018-04-09T17:22:32.149Z,99678.06
2018-04-09T17:24:59.595Z,99678.45
2018-04-09T17:27:26.984Z,99677.14
2018-04-09T17:29:54.393Z,99675.28
2018-04-09T17:32:21.793Z,99670.23
2018-04-09T17:34:49.180Z,99667.47
2018-04-09T17:37:16.571Z,99660.95
2018-04-09T17:39:43.961Z,99659.06
2018-04-09T17:42:11.353Z,99658.74
2018-04-09T17:44:38.774Z,99651.82
2018-04-09T17:47:06.153Z,99657.73
2018-04-09T17:49:33.576Z,99647.42
2018-04-09T17:52:00.960Z,99660.48
2018-04-09T17:54:28.372Z,99665.59
2018-04-09T17:56:55.769Z,99655.66
2018-04-09T17:59:23.148Z,99658.99
2018-04-09T18:01:50.543Z,99657.16
2018-04-09T18:04:17.990Z,99661.84
2018-04-09T18:06:45.378Z,99660.97
2018-04-09T18:09:12.771Z,99666.69
2018-04-09T18:11:40.161Z,99666.52
2018-04-09T18:14:07.592Z,99664.07
2018-04-09T18:16:34.989Z,99667.30
2018-04-09T18:19:02.464Z,99674.53
2018-04-09T18:21:29.858Z,99673.19
2018-04-09T18:23:57.245Z,99672.05
2018-04-09T18:26:24.646Z,99674.98
2018-04-09T18:28:52.053Z,99679.79
2018-04-09T18:31:19.470Z,99678.94
2018-04-09T18:33:46.865Z,99677.72
2018-04-09T18:36:14.262Z,99688.39
2018-04-09T18:38:41.657Z,99681.37
2018-04-09T18:41:09.058Z,99683.25
2018-04-09T18:43:36.454Z,99679.38
2018-04-09T18:46:03.866Z,99680.97
2018-04-09T18:48:31.336Z,99675.80
2018-04-09T18:50:58.793Z,99677.91
2018-04-09T18:53:26.196Z,99685.91
2018-04-09T18:55:53.724Z,99686.22
2018-04-09T18:58:21.115Z,99682.31
2018-04-09T19:00:48.521Z,99682.80
2018-04-09T19:03:15.977Z,99679.59
2018-04-09T19:05:43.432Z,99673.05
2018-04-09T19:08:10.889Z,99676.45
2018-04-09T19:10:38.293Z,99671.02
2018-04-09T19:13:05.711Z,99668.33
2018-04-09T19:15:33.117Z,99676.92
2018-04-09T19:18:00.498Z,99676.67
2018-04-09T19:20:27.897Z,99671.63
2018-04-09T19:22:55.290Z,99674.83
2018-04-09T19:25:22.783Z,99683.27
2018-04-09T19:27:50.240Z,99684.77
2018-04-09T19:30:17.641Z,99685.28
2018-04-09T19:32:45.063Z,99682.75
2018-04-09T19:35:12.482Z,99679.97
2018-04-09T19:37:45.530Z,99681.92
2018-04-09T19:40:18.767Z,99680.48
2018-04-09T19:42:46.247Z,99678.63
2018-04-09T19:45:13.640Z,99674.05
2018-04-09T19:47:41.244Z,99677.70
2018-04-09T19:50:08.664Z,99679.03
2018-04-09T19:52:36.182Z,99686.34
2018-04-09T19:55:03.592Z,99677.90
2018-04-09T19:57:31.205Z,99672.70
2018-04-09T19:59:58.596Z,99680.00
2018-04-09T20:02:25.998Z,99673.66
2018-04-09T20:04:53.546Z,99674.08
2018-04-09T20:07:21.098Z,99667.13
2018-04-09T20:09:48.601Z,99679.17
2018-04-09T20:12:16.029Z,99676.15
2018-04-09T20:14:43.523Z,99685.20
2018-04-09T20:17:11.012Z,99678.41
2018-04-09T20:19:38.405Z,99683.03
2018-04-09T20:22:05.969Z,99682.87
2018-04-09T20:24:33.433Z,99682.74
2018-04-09T20:27:00.825Z,99680.42
2018-04-09T20:29:28.316Z,99680.26
2018-04-09T20:31:55.700Z,99681.76
2018-04-09T20:34:23.160Z,99682.87
2018-04-09T20:36:50.554Z,99684.83
2018-04-09T20:39:18.028Z,99676.01
2018-04-09T20:41:45.417Z,99673.42
2018-04-09T20:44:12.859Z,99679.09
2018-04-09T20:46:40.292Z,99676.76
2018-04-09T20:49:07.684Z,99676.83
2018-04-09T20:51:35.077Z,99677.27
2018-04-09T20:54:02.485Z,99680.17
2018-04-09T20:56:29.880Z,99678.11
2018-04-09T20:58:57.395Z,99675.93
2018-04-09T21:01:24.792Z,99674.92
2018-04-09T21:03:52.195Z,99674.02
2018-04-09T21:06:19.603Z,99665.14
2018-04-09T21:08:47.902Z,99669.62
2018-04-09T21:11:15.400Z,99671.95
2018-04-09T21:13:42.808Z,99677.66
2018-04-09T21:16:10.316Z,99673.22
2018-04-09T21:18:37.705Z,99676.97
2018-04-09T21:21:05.143Z,99676.88
2018-04-09T21:23:32.548Z,99676.99
2018-04-09T21:25:59.944Z,99677.38
2018-04-09T21:28:27.475Z,99676.52
2018-04-09T21:30:54.894Z,99676.83
2018-04-09T21:33:22.284Z,99674.91
2018-04-09T21:35:49.690Z,99668.11
2018-04-09T21:38:17.076Z,99674.17
2018-04-09T21:40:44.481Z,99666.13
2018-04-09T21:43:11.903Z,99660.83
2018-04-09T21:45:39.386Z,99662.62
2018-04-09T21:48:06.780Z,99668.16
2018-04-09T21:50:34.176Z,99669.48
2018-04-09T21:53:01.568Z,99675.35
2018-04-09T21:55:28.968Z,99667.36
2018-04-09T21:57:56.440Z,99660.91
2018-04-09T22:00:23.871Z,99663.56
2018-04-09T22:02:51.363Z,99655.61
2018-04-09T22:05:18.776Z,99652.09
2018-04-09T22:07:46.168Z,99660.94
2018-04-09T22:10:13.552Z,99655.25
2018-04-09T22:12:40.980Z,99653.65
2018-04-09T22:15:08.685Z,99657.19
2018-04-09T22:17:36.114Z,99654.09
2018-04-09T22:20:03.505Z,99652.73
2018-04-09T22:22:30.908Z,99651.01
2018-04-09T22:24:58.296Z,99653.11
2018-04-09T22:27:25.696Z,99643.23
2018-04-09T22:29:53.137Z,99642.17
2018-04-09T22:32:20.541Z,99646.47
2018-04-09T22:34:47.928Z,99645.14
2018-04-09T22:37:15.332Z,99648.52
2018-04-09T22:39:42.752Z,99645.11
2018-04-09T22:42:10.152Z,99647.89
2018-04-09T22:44:37.547Z,99650.00
2018-04-09T22:47:04.957Z,99643.15
2018-04-09T22:49:32.381Z,99644.98
2018-04-09T22:51:59.836Z,99645.81
2018-04-09T22:54:27.235Z,99644.69
2018-04-09T22:56:54.640Z,99652.61
2018-04-09T22:59:22.040Z,99646.59
2018-04-09T23:01:49.452Z,99647.59
2018-04-09T23:04:16.849Z,99647.23
2018-04-09T23:06:44.253Z,99643.80
2018-04-09T23:09:11.645Z,99639.20
2018-04-09T23:11:39.084Z,99635.48
2018-04-09T23:14:06.537Z,99633.95
2018-04-09T23:16:33.936Z,99639.33
2018-04-09T23:19:01.353Z,99636.30
2018-04-09T23:21:28.815Z,99638.00
2018-04-09T23:23:56.208Z,99640.70
2018-04-09T23:26:23.608Z,99636.38
2018-04-09T23:28:51.006Z,99638.03
2018-04-09T23:31:18.396Z,99634.40
2018-04-09T23:33:45.797Z,99633.94
2018-04-09T23:36:13.184Z,99637.95
2018-04-09T23:38:40.598Z,99640.23
2018-04-09T23:41:08.006Z,99633.79
2018-04-09T23:43:35.407Z,99636.11
2018-04-09T23:46:02.812Z,99636.83
2018-04-09T23:48:30.217Z,99635.11
2018-04-09T23:50:57.624Z,99638.75
2018-04-09T23:53:25.025Z,99642.44
2018-04-09T23:55:52.417Z,99638.80
2018-04-09T23:58:19.892Z,99642.20
